sensor_id;sensor_type;location;lat;lon;timestamp;P1;durP1;ratioP1;P2;durP2;ratioP2
60867;SDS011;46702;48.370;10.794;2023-06-04T00:00:24;5.45;;;4.43;;
60867;SDS011;46702;48.370;10.794;2023-06-04T00:02:50;7.47;;;4.20;;
60867;SDS011;46702;48.370;10.794;2023-06-04T00:05:16;7.72;;;4.00;;
60867;SDS011;46702;48.370;10.794;2023-06-04T00:07:42;7.85;;;4.57;;
60867;SDS011;46702;48.370;10.794;2023-06-04T00:10:08;8.15;;;3.90;;
60867;SDS011;46702;48.370;10.794;2023-06-04T00:12:34;9.40;;;4.00;;
60867;SDS011;46702;48.370;10.794;2023-06-04T00:14:59;7.38;;;3.80;;
60867;SDS011;46702;48.370;10.794;2023-06-04T00:17:25;6.28;;;4.03;;
60867;SDS011;46702;48.370;10.794;2023-06-04T00:19:50;5.35;;;3.53;;
60867;SDS011;46702;48.370;10.794;2023-06-04T00:22:16;7.47;;;3.95;;
60867;SDS011;46702;48.370;10.794;2023-06-04T00:24:42;4.75;;;3.70;;
60867;SDS011;46702;48.370;10.794;2023-06-04T00:27:07;4.75;;;3.17;;
60867;SDS011;46702;48.370;10.794;2023-06-04T00:29:33;6.57;;;3.40;;
60867;SDS011;46702;48.370;10.794;2023-06-04T00:31:59;4.45;;;3.33;;
60867;SDS011;46702;48.370;10.794;2023-06-04T00:34:25;5.38;;;2.75;;
60867;SDS011;46702;48.370;10.794;2023-06-04T00:36:50;4.55;;;3.40;;
60867;SDS011;46702;48.370;10.794;2023-06-04T00:39:16;4.30;;;3.35;;
60867;SDS011;46702;48.370;10.794;2023-06-04T00:41:42;5.10;;;3.10;;
60867;SDS011;46702;48.370;10.794;2023-06-04T00:44:07;3.67;;;3.15;;
60867;SDS011;46702;48.370;10.794;2023-06-04T00:46:34;4.03;;;3.00;;
60867;SDS011;46702;48.370;10.794;2023-06-04T00:49:00;4.93;;;3.22;;
60867;SDS011;46702;48.370;10.794;2023-06-04T00:51:27;4.75;;;2.95;;
60867;SDS011;46702;48.370;10.794;2023-06-04T00:53:56;3.70;;;2.72;;
60867;SDS011;46702;48.370;10.794;2023-06-04T00:56:23;3.50;;;2.88;;
60867;SDS011;46702;48.370;10.794;2023-06-04T00:58:48;6.35;;;3.30;;
60867;SDS011;46702;48.370;10.794;2023-06-04T01:04:05;3.80;;;2.72;;
60867;SDS011;46702;48.370;10.794;2023-06-04T01:06:39;3.78;;;2.80;;
60867;SDS011;46702;48.370;10.794;2023-06-04T01:09:08;4.05;;;2.55;;
60867;SDS011;46702;48.370;10.794;2023-06-04T01:11:36;5.70;;;3.38;;
60867;SDS011;46702;48.370;10.794;2023-06-04T01:14:03;3.30;;;2.97;;
60867;SDS011;46702;48.370;10.794;2023-06-04T01:16:35;4.78;;;3.40;;
60867;SDS011;46702;48.370;10.794;2023-06-04T01:19:11;4.05;;;2.88;;
60867;SDS011;46702;48.370;10.794;2023-06-04T01:22:01;4.22;;;2.90;;
60867;SDS011;46702;48.370;10.794;2023-06-04T01:24:29;3.45;;;2.90;;
60867;SDS011;46702;48.370;10.794;2023-06-04T01:27:01;5.97;;;3.17;;
60867;SDS011;46702;48.370;10.794;2023-06-04T01:29:28;2.78;;;2.50;;
60867;SDS011;46702;48.370;10.794;2023-06-04T01:31:55;3.17;;;2.65;;
60867;SDS011;46702;48.370;10.794;2023-06-04T01:34:21;4.00;;;2.85;;
60867;SDS011;46702;48.370;10.794;2023-06-04T01:36:48;4.00;;;2.85;;
60867;SDS011;46702;48.370;10.794;2023-06-04T01:39:13;3.92;;;2.67;;
60867;SDS011;46702;48.370;10.794;2023-06-04T01:41:39;5.35;;;2.75;;
60867;SDS011;46702;48.370;10.794;2023-06-04T01:44:04;2.97;;;2.35;;
60867;SDS011;46702;48.370;10.794;2023-06-04T01:46:30;4.30;;;2.70;;
60867;SDS011;46702;48.370;10.794;2023-06-04T01:48:56;3.53;;;2.72;;
60867;SDS011;46702;48.370;10.794;2023-06-04T01:51:21;4.00;;;2.70;;
60867;SDS011;46702;48.370;10.794;2023-06-04T01:53:47;4.78;;;2.63;;
60867;SDS011;46702;48.370;10.794;2023-06-04T01:56:12;3.30;;;2.40;;
60867;SDS011;46702;48.370;10.794;2023-06-04T01:58:39;4.68;;;2.50;;
60867;SDS011;46702;48.370;10.794;2023-06-04T02:01:05;2.90;;;2.40;;
60867;SDS011;46702;48.370;10.794;2023-06-04T02:03:32;4.35;;;2.45;;
60867;SDS011;46702;48.370;10.794;2023-06-04T02:06:02;5.10;;;2.75;;
60867;SDS011;46702;48.370;10.794;2023-06-04T02:08:29;6.13;;;2.60;;
60867;SDS011;46702;48.370;10.794;2023-06-04T02:10:55;3.78;;;2.55;;
60867;SDS011;46702;48.370;10.794;2023-06-04T02:13:21;4.00;;;2.40;;
60867;SDS011;46702;48.370;10.794;2023-06-04T02:15:46;2.88;;;2.42;;
60867;SDS011;46702;48.370;10.794;2023-06-04T02:18:14;4.80;;;2.47;;
60867;SDS011;46702;48.370;10.794;2023-06-04T02:20:42;3.90;;;2.70;;
60867;SDS011;46702;48.370;10.794;2023-06-04T02:23:09;3.40;;;2.50;;
60867;SDS011;46702;48.370;10.794;2023-06-04T02:25:34;3.17;;;2.53;;
60867;SDS011;46702;48.370;10.794;2023-06-04T02:28:00;4.22;;;2.63;;
60867;SDS011;46702;48.370;10.794;2023-06-04T02:30:25;3.67;;;2.67;;
60867;SDS011;46702;48.370;10.794;2023-06-04T02:32:51;7.65;;;2.47;;
60867;SDS011;46702;48.370;10.794;2023-06-04T02:35:17;3.22;;;2.65;;
60867;SDS011;46702;48.370;10.794;2023-06-04T02:37:46;3.85;;;2.63;;
60867;SDS011;46702;48.370;10.794;2023-06-04T02:40:11;8.00;;;2.80;;
60867;SDS011;46702;48.370;10.794;2023-06-04T02:42:37;3.13;;;2.47;;
60867;SDS011;46702;48.370;10.794;2023-06-04T02:45:02;4.60;;;2.50;;
60867;SDS011;46702;48.370;10.794;2023-06-04T02:47:28;2.78;;;2.38;;
60867;SDS011;46702;48.370;10.794;2023-06-04T02:49:54;4.38;;;2.58;;
60867;SDS011;46702;48.370;10.794;2023-06-04T02:52:19;2.90;;;2.33;;
60867;SDS011;46702;48.370;10.794;2023-06-04T02:54:47;3.40;;;2.42;;
60867;SDS011;46702;48.370;10.794;2023-06-04T02:57:13;4.10;;;2.25;;
60867;SDS011;46702;48.370;10.794;2023-06-04T02:59:38;4.32;;;2.42;;
60867;SDS011;46702;48.370;10.794;2023-06-04T03:02:04;6.55;;;2.47;;
60867;SDS011;46702;48.370;10.794;2023-06-04T03:04:30;5.10;;;2.70;;
60867;SDS011;46702;48.370;10.794;2023-06-04T03:07:02;2.75;;;2.38;;
60867;SDS011;46702;48.370;10.794;2023-06-04T03:09:31;3.72;;;2.47;;
60867;SDS011;46702;48.370;10.794;2023-06-04T03:12:01;6.68;;;3.15;;
60867;SDS011;46702;48.370;10.794;2023-06-04T03:14:27;3.60;;;2.33;;
60867;SDS011;46702;48.370;10.794;2023-06-04T03:17:02;4.75;;;2.30;;
60867;SDS011;46702;48.370;10.794;2023-06-04T03:19:38;3.05;;;2.20;;
60867;SDS011;46702;48.370;10.794;2023-06-04T03:22:05;3.17;;;2.50;;
60867;SDS011;46702;48.370;10.794;2023-06-04T03:24:36;3.67;;;2.42;;
60867;SDS011;46702;48.370;10.794;2023-06-04T03:27:04;2.40;;;2.13;;
60867;SDS011;46702;48.370;10.794;2023-06-04T03:29:30;3.53;;;2.30;;
60867;SDS011;46702;48.370;10.794;2023-06-04T03:31:59;4.03;;;2.45;;
60867;SDS011;46702;48.370;10.794;2023-06-04T03:34:25;4.43;;;2.38;;
60867;SDS011;46702;48.370;10.794;2023-06-04T03:36:52;4.07;;;2.30;;
60867;SDS011;46702;48.370;10.794;2023-06-04T03:39:19;3.65;;;2.10;;
60867;SDS011;46702;48.370;10.794;2023-06-04T03:41:45;3.35;;;2.20;;
60867;SDS011;46702;48.370;10.794;2023-06-04T03:44:14;3.97;;;2.50;;
60867;SDS011;46702;48.370;10.794;2023-06-04T03:46:43;2.45;;;2.08;;
60867;SDS011;46702;48.370;10.794;2023-06-04T03:49:10;2.47;;;2.10;;
60867;SDS011;46702;48.370;10.794;2023-06-04T03:51:36;2.22;;;1.77;;
60867;SDS011;46702;48.370;10.794;2023-06-04T03:54:02;4.35;;;2.45;;
60867;SDS011;46702;48.370;10.794;2023-06-04T03:56:29;4.40;;;2.30;;
60867;SDS011;46702;48.370;10.794;2023-06-04T03:58:55;4.00;;;2.15;;
60867;SDS011;46702;48.370;10.794;2023-06-04T04:01:21;4.28;;;2.05;;
60867;SDS011;46702;48.370;10.794;2023-06-04T04:03:48;5.65;;;2.45;;
60867;SDS011;46702;48.370;10.794;2023-06-04T04:06:15;3.40;;;2.50;;
60867;SDS011;46702;48.370;10.794;2023-06-04T04:08:40;2.75;;;2.38;;
60867;SDS011;46702;48.370;10.794;2023-06-04T04:11:12;2.60;;;2.20;;
60867;SDS011;46702;48.370;10.794;2023-06-04T04:13:39;3.92;;;2.05;;
60867;SDS011;46702;48.370;10.794;2023-06-04T04:16:05;2.95;;;2.30;;
60867;SDS011;46702;48.370;10.794;2023-06-04T04:18:34;3.15;;;2.10;;
60867;SDS011;46702;48.370;10.794;2023-06-04T04:21:01;2.97;;;2.20;;
60867;SDS011;46702;48.370;10.794;2023-06-04T04:23:28;3.28;;;2.30;;
60867;SDS011;46702;48.370;10.794;2023-06-04T04:25:54;2.58;;;1.95;;
60867;SDS011;46702;48.370;10.794;2023-06-04T04:28:21;3.53;;;2.70;;
60867;SDS011;46702;48.370;10.794;2023-06-04T04:30:47;5.25;;;2.30;;
60867;SDS011;46702;48.370;10.794;2023-06-04T04:33:14;2.92;;;2.22;;
60867;SDS011;46702;48.370;10.794;2023-06-04T04:35:41;3.67;;;2.45;;
60867;SDS011;46702;48.370;10.794;2023-06-04T04:38:07;3.97;;;2.40;;
60867;SDS011;46702;48.370;10.794;2023-06-04T04:40:34;3.00;;;2.20;;
60867;SDS011;46702;48.370;10.794;2023-06-04T04:43:00;5.28;;;2.60;;
60867;SDS011;46702;48.370;10.794;2023-06-04T04:45:26;2.92;;;2.38;;
60867;SDS011;46702;48.370;10.794;2023-06-04T04:47:51;3.78;;;2.40;;
60867;SDS011;46702;48.370;10.794;2023-06-04T04:50:17;3.80;;;2.10;;
60867;SDS011;46702;48.370;10.794;2023-06-04T04:52:42;3.05;;;2.22;;
60867;SDS011;46702;48.370;10.794;2023-06-04T04:55:08;3.40;;;2.60;;
60867;SDS011;46702;48.370;10.794;2023-06-04T04:57:34;2.85;;;2.35;;
60867;SDS011;46702;48.370;10.794;2023-06-04T05:00:00;3.72;;;1.98;;
60867;SDS011;46702;48.370;10.794;2023-06-04T05:02:26;3.42;;;2.38;;
60867;SDS011;46702;48.370;10.794;2023-06-04T05:04:51;7.30;;;2.50;;
60867;SDS011;46702;48.370;10.794;2023-06-04T05:07:17;2.40;;;2.20;;
60867;SDS011;46702;48.370;10.794;2023-06-04T05:09:44;7.70;;;2.73;;
60867;SDS011;46702;48.370;10.794;2023-06-04T05:12:10;2.70;;;2.28;;
60867;SDS011;46702;48.370;10.794;2023-06-04T05:14:36;4.75;;;2.28;;
60867;SDS011;46702;48.370;10.794;2023-06-04T05:17:01;3.92;;;2.38;;
60867;SDS011;46702;48.370;10.794;2023-06-04T05:19:31;3.33;;;1.95;;
60867;SDS011;46702;48.370;10.794;2023-06-04T05:21:58;3.03;;;2.45;;
60867;SDS011;46702;48.370;10.794;2023-06-04T05:24:25;5.18;;;2.38;;
60867;SDS011;46702;48.370;10.794;2023-06-04T05:26:51;3.50;;;2.78;;
60867;SDS011;46702;48.370;10.794;2023-06-04T05:29:16;4.18;;;2.42;;
60867;SDS011;46702;48.370;10.794;2023-06-04T05:31:42;3.30;;;2.28;;
60867;SDS011;46702;48.370;10.794;2023-06-04T05:34:08;2.70;;;2.20;;
60867;SDS011;46702;48.370;10.794;2023-06-04T05:36:34;2.80;;;2.45;;
60867;SDS011;46702;48.370;10.794;2023-06-04T05:39:00;5.45;;;2.33;;
60867;SDS011;46702;48.370;10.794;2023-06-04T05:41:26;3.60;;;2.30;;
60867;SDS011;46702;48.370;10.794;2023-06-04T05:43:52;2.50;;;1.95;;
60867;SDS011;46702;48.370;10.794;2023-06-04T05:46:18;3.78;;;2.35;;
60867;SDS011;46702;48.370;10.794;2023-06-04T05:48:44;3.15;;;2.70;;
60867;SDS011;46702;48.370;10.794;2023-06-04T05:51:10;3.42;;;2.35;;
60867;SDS011;46702;48.370;10.794;2023-06-04T05:53:38;3.33;;;2.38;;
60867;SDS011;46702;48.370;10.794;2023-06-04T05:56:04;4.97;;;2.88;;
60867;SDS011;46702;48.370;10.794;2023-06-04T05:58:29;3.97;;;2.65;;
60867;SDS011;46702;48.370;10.794;2023-06-04T06:00:57;3.90;;;2.55;;
60867;SDS011;46702;48.370;10.794;2023-06-04T06:03:23;2.80;;;2.50;;
60867;SDS011;46702;48.370;10.794;2023-06-04T06:05:49;3.65;;;2.60;;
60867;SDS011;46702;48.370;10.794;2023-06-04T06:08:14;4.82;;;2.83;;
60867;SDS011;46702;48.370;10.794;2023-06-04T06:10:40;5.88;;;2.40;;
60867;SDS011;46702;48.370;10.794;2023-06-04T06:13:05;3.50;;;2.40;;
60867;SDS011;46702;48.370;10.794;2023-06-04T06:15:31;3.40;;;2.03;;
60867;SDS011;46702;48.370;10.794;2023-06-04T06:17:58;3.38;;;2.47;;
60867;SDS011;46702;48.370;10.794;2023-06-04T06:20:23;2.53;;;2.33;;
60867;SDS011;46702;48.370;10.794;2023-06-04T06:22:49;3.72;;;2.25;;
60867;SDS011;46702;48.370;10.794;2023-06-04T06:25:14;3.75;;;2.55;;
60867;SDS011;46702;48.370;10.794;2023-06-04T06:27:41;5.13;;;2.58;;
60867;SDS011;46702;48.370;10.794;2023-06-04T06:30:07;4.72;;;2.60;;
60867;SDS011;46702;48.370;10.794;2023-06-04T06:32:33;4.15;;;2.65;;
60867;SDS011;46702;48.370;10.794;2023-06-04T06:35:00;6.20;;;2.60;;
60867;SDS011;46702;48.370;10.794;2023-06-04T06:37:26;4.75;;;2.60;;
60867;SDS011;46702;48.370;10.794;2023-06-04T06:39:52;5.55;;;2.70;;
60867;SDS011;46702;48.370;10.794;2023-06-04T06:42:17;3.95;;;2.65;;
60867;SDS011;46702;48.370;10.794;2023-06-04T06:44:44;3.83;;;2.50;;
60867;SDS011;46702;48.370;10.794;2023-06-04T06:47:10;3.65;;;2.40;;
60867;SDS011;46702;48.370;10.794;2023-06-04T06:49:38;3.72;;;2.75;;
60867;SDS011;46702;48.370;10.794;2023-06-04T06:52:04;4.60;;;2.58;;
60867;SDS011;46702;48.370;10.794;2023-06-04T06:54:30;3.05;;;2.60;;
60867;SDS011;46702;48.370;10.794;2023-06-04T06:56:56;4.45;;;2.63;;
60867;SDS011;46702;48.370;10.794;2023-06-04T06:59:22;2.67;;;2.33;;
60867;SDS011;46702;48.370;10.794;2023-06-04T07:01:48;4.93;;;2.63;;
60867;SDS011;46702;48.370;10.794;2023-06-04T07:04:14;3.47;;;2.85;;
60867;SDS011;46702;48.370;10.794;2023-06-04T07:06:41;3.25;;;2.22;;
60867;SDS011;46702;48.370;10.794;2023-06-04T07:09:06;7.18;;;3.03;;
60867;SDS011;46702;48.370;10.794;2023-06-04T07:11:32;3.55;;;2.25;;
60867;SDS011;46702;48.370;10.794;2023-06-04T07:13:58;5.03;;;2.42;;
60867;SDS011;46702;48.370;10.794;2023-06-04T07:16:23;2.45;;;2.22;;
60867;SDS011;46702;48.370;10.794;2023-06-04T07:18:49;5.85;;;2.80;;
60867;SDS011;46702;48.370;10.794;2023-06-04T07:21:15;5.95;;;3.00;;
60867;SDS011;46702;48.370;10.794;2023-06-04T07:23:41;3.80;;;2.90;;
60867;SDS011;46702;48.370;10.794;2023-06-04T07:26:07;4.25;;;3.08;;
60867;SDS011;46702;48.370;10.794;2023-06-04T07:28:33;3.83;;;2.67;;
60867;SDS011;46702;48.370;10.794;2023-06-04T07:30:58;5.10;;;2.88;;
60867;SDS011;46702;48.370;10.794;2023-06-04T07:33:25;5.68;;;2.72;;
60867;SDS011;46702;48.370;10.794;2023-06-04T07:35:51;4.00;;;2.95;;
60867;SDS011;46702;48.370;10.794;2023-06-04T07:38:16;5.63;;;3.00;;
60867;SDS011;46702;48.370;10.794;2023-06-04T07:40:43;3.75;;;2.88;;
60867;SDS011;46702;48.370;10.794;2023-06-04T07:43:10;5.57;;;3.10;;
60867;SDS011;46702;48.370;10.794;2023-06-04T07:45:35;3.55;;;2.70;;
60867;SDS011;46702;48.370;10.794;2023-06-04T07:48:01;3.65;;;2.78;;
60867;SDS011;46702;48.370;10.794;2023-06-04T07:50:27;5.07;;;2.67;;
60867;SDS011;46702;48.370;10.794;2023-06-04T07:52:52;3.83;;;3.03;;
60867;SDS011;46702;48.370;10.794;2023-06-04T07:55:18;4.55;;;2.60;;
60867;SDS011;46702;48.370;10.794;2023-06-04T07:57:43;5.65;;;2.95;;
60867;SDS011;46702;48.370;10.794;2023-06-04T08:00:10;4.13;;;2.85;;
60867;SDS011;46702;48.370;10.794;2023-06-04T08:02:36;3.15;;;2.85;;
60867;SDS011;46702;48.370;10.794;2023-06-04T08:05:02;6.15;;;2.80;;
60867;SDS011;46702;48.370;10.794;2023-06-04T08:07:29;4.03;;;2.50;;
60867;SDS011;46702;48.370;10.794;2023-06-04T08:09:55;5.47;;;2.75;;
60867;SDS011;46702;48.370;10.794;2023-06-04T08:12:21;3.40;;;2.38;;
60867;SDS011;46702;48.370;10.794;2023-06-04T08:14:47;4.28;;;2.92;;
60867;SDS011;46702;48.370;10.794;2023-06-04T08:17:15;3.50;;;2.70;;
60867;SDS011;46702;48.370;10.794;2023-06-04T08:19:41;4.63;;;3.08;;
60867;SDS011;46702;48.370;10.794;2023-06-04T08:22:06;3.55;;;2.58;;
60867;SDS011;46702;48.370;10.794;2023-06-04T08:24:34;4.97;;;2.47;;
60867;SDS011;46702;48.370;10.794;2023-06-04T08:26:59;3.42;;;2.60;;
60867;SDS011;46702;48.370;10.794;2023-06-04T08:29:25;3.78;;;2.22;;
60867;SDS011;46702;48.370;10.794;2023-06-04T08:31:51;4.40;;;2.40;;
60867;SDS011;46702;48.370;10.794;2023-06-04T08:34:16;5.45;;;2.70;;
60867;SDS011;46702;48.370;10.794;2023-06-04T08:36:42;3.90;;;2.67;;
60867;SDS011;46702;48.370;10.794;2023-06-04T08:39:08;4.88;;;2.80;;
60867;SDS011;46702;48.370;10.794;2023-06-04T08:41:38;5.18;;;2.70;;
60867;SDS011;46702;48.370;10.794;2023-06-04T08:44:08;3.78;;;2.70;;
60867;SDS011;46702;48.370;10.794;2023-06-04T08:46:36;4.80;;;3.00;;
60867;SDS011;46702;48.370;10.794;2023-06-04T08:49:07;3.35;;;2.47;;
60867;SDS011;46702;48.370;10.794;2023-06-04T08:51:34;4.00;;;2.95;;
60867;SDS011;46702;48.370;10.794;2023-06-04T08:54:03;3.42;;;2.65;;
60867;SDS011;46702;48.370;10.794;2023-06-04T08:56:33;4.55;;;2.80;;
60867;SDS011;46702;48.370;10.794;2023-06-04T08:59:00;4.32;;;2.60;;
60867;SDS011;46702;48.370;10.794;2023-06-04T09:01:31;5.88;;;2.50;;
60867;SDS011;46702;48.370;10.794;2023-06-04T09:03:59;5.18;;;2.63;;
60867;SDS011;46702;48.370;10.794;2023-06-04T09:06:26;3.80;;;2.38;;
60867;SDS011;46702;48.370;10.794;2023-06-04T09:08:52;4.32;;;2.55;;
60867;SDS011;46702;48.370;10.794;2023-06-04T09:11:23;4.40;;;3.53;;
60867;SDS011;46702;48.370;10.794;2023-06-04T09:13:52;3.03;;;2.47;;
60867;SDS011;46702;48.370;10.794;2023-06-04T09:16:18;4.57;;;2.63;;
60867;SDS011;46702;48.370;10.794;2023-06-04T09:18:44;3.20;;;2.50;;
60867;SDS011;46702;48.370;10.794;2023-06-04T09:21:10;3.53;;;2.60;;
60867;SDS011;46702;48.370;10.794;2023-06-04T09:23:48;4.32;;;2.72;;
60867;SDS011;46702;48.370;10.794;2023-06-04T09:26:14;3.25;;;2.60;;
60867;SDS011;46702;48.370;10.794;2023-06-04T09:28:43;3.28;;;2.63;;
60867;SDS011;46702;48.370;10.794;2023-06-04T09:31:09;3.92;;;2.53;;
60867;SDS011;46702;48.370;10.794;2023-06-04T09:33:46;6.70;;;2.70;;
60867;SDS011;46702;48.370;10.794;2023-06-04T09:36:13;3.75;;;2.53;;
60867;SDS011;46702;48.370;10.794;2023-06-04T09:38:40;3.33;;;2.67;;
60867;SDS011;46702;48.370;10.794;2023-06-04T09:41:12;3.40;;;2.70;;
60867;SDS011;46702;48.370;10.794;2023-06-04T09:43:44;2.97;;;2.58;;
60867;SDS011;46702;48.370;10.794;2023-06-04T09:46:11;5.97;;;2.90;;
60867;SDS011;46702;48.370;10.794;2023-06-04T09:48:41;5.72;;;3.08;;
60867;SDS011;46702;48.370;10.794;2023-06-04T09:53:34;3.85;;;2.53;;
60867;SDS011;46702;48.370;10.794;2023-06-04T09:56:00;5.43;;;3.20;;
60867;SDS011;46702;48.370;10.794;2023-06-04T09:58:28;4.55;;;2.83;;
60867;SDS011;46702;48.370;10.794;2023-06-04T10:00:55;4.97;;;2.70;;
60867;SDS011;46702;48.370;10.794;2023-06-04T10:03:25;4.90;;;3.35;;
60867;SDS011;46702;48.370;10.794;2023-06-04T10:05:58;6.38;;;3.13;;
60867;SDS011;46702;48.370;10.794;2023-06-04T10:08:26;3.80;;;2.88;;
60867;SDS011;46702;48.370;10.794;2023-06-04T10:10:58;3.45;;;2.80;;
60867;SDS011;46702;48.370;10.794;2023-06-04T10:13:28;4.97;;;2.88;;
60867;SDS011;46702;48.370;10.794;2023-06-04T10:15:59;5.03;;;3.10;;
60867;SDS011;46702;48.370;10.794;2023-06-04T10:18:27;4.20;;;3.30;;
60867;SDS011;46702;48.370;10.794;2023-06-04T10:20:56;4.65;;;3.20;;
60867;SDS011;46702;48.370;10.794;2023-06-04T10:23:23;3.90;;;3.03;;
60867;SDS011;46702;48.370;10.794;2023-06-04T10:25:50;4.20;;;3.38;;
60867;SDS011;46702;48.370;10.794;2023-06-04T10:30:44;3.03;;;2.72;;
60867;SDS011;46702;48.370;10.794;2023-06-04T10:33:09;4.00;;;2.92;;
60867;SDS011;46702;48.370;10.794;2023-06-04T10:35:35;5.97;;;3.67;;
60867;SDS011;46702;48.370;10.794;2023-06-04T10:40:33;5.53;;;3.00;;
60867;SDS011;46702;48.370;10.794;2023-06-04T10:43:09;3.70;;;3.00;;
60867;SDS011;46702;48.370;10.794;2023-06-04T10:45:37;5.40;;;2.87;;
60867;SDS011;46702;48.370;10.794;2023-06-04T10:48:03;3.90;;;3.13;;
60867;SDS011;46702;48.370;10.794;2023-06-04T10:50:50;3.50;;;2.92;;
60867;SDS011;46702;48.370;10.794;2023-06-04T10:53:17;4.50;;;2.95;;
60867;SDS011;46702;48.370;10.794;2023-06-04T10:55:45;4.22;;;2.80;;
60867;SDS011;46702;48.370;10.794;2023-06-04T10:58:12;4.03;;;2.90;;
60867;SDS011;46702;48.370;10.794;2023-06-04T11:00:44;3.25;;;2.90;;
60867;SDS011;46702;48.370;10.794;2023-06-04T11:03:13;4.43;;;2.78;;
60867;SDS011;46702;48.370;10.794;2023-06-04T11:08:07;3.67;;;3.05;;
60867;SDS011;46702;48.370;10.794;2023-06-04T11:10:36;5.72;;;3.45;;
60867;SDS011;46702;48.370;10.794;2023-06-04T11:13:03;5.22;;;3.20;;
60867;SDS011;46702;48.370;10.794;2023-06-04T11:15:39;6.82;;;3.20;;
60867;SDS011;46702;48.370;10.794;2023-06-04T11:18:17;6.22;;;3.45;;
60867;SDS011;46702;48.370;10.794;2023-06-04T11:20:44;4.40;;;3.22;;
60867;SDS011;46702;48.370;10.794;2023-06-04T11:25:38;5.47;;;3.45;;
60867;SDS011;46702;48.370;10.794;2023-06-04T11:28:03;3.88;;;3.25;;
60867;SDS011;46702;48.370;10.794;2023-06-04T11:30:29;8.32;;;3.85;;
60867;SDS011;46702;48.370;10.794;2023-06-04T11:33:02;5.72;;;3.47;;
60867;SDS011;46702;48.370;10.794;2023-06-04T11:35:28;5.38;;;3.17;;
60867;SDS011;46702;48.370;10.794;2023-06-04T11:37:55;7.47;;;3.42;;
60867;SDS011;46702;48.370;10.794;2023-06-04T11:40:21;6.05;;;3.38;;
60867;SDS011;46702;48.370;10.794;2023-06-04T11:42:47;4.63;;;3.50;;
60867;SDS011;46702;48.370;10.794;2023-06-04T11:45:14;3.55;;;3.03;;
60867;SDS011;46702;48.370;10.794;2023-06-04T11:47:45;4.47;;;3.33;;
60867;SDS011;46702;48.370;10.794;2023-06-04T11:50:12;4.85;;;3.00;;
60867;SDS011;46702;48.370;10.794;2023-06-04T11:52:38;5.03;;;3.42;;
60867;SDS011;46702;48.370;10.794;2023-06-04T11:55:05;5.13;;;3.35;;
60867;SDS011;46702;48.370;10.794;2023-06-04T11:57:34;4.47;;;3.53;;
60867;SDS011;46702;48.370;10.794;2023-06-04T12:00:01;5.80;;;3.30;;
60867;SDS011;46702;48.370;10.794;2023-06-04T12:02:27;4.07;;;3.60;;
60867;SDS011;46702;48.370;10.794;2023-06-04T12:04:52;4.38;;;3.80;;
60867;SDS011;46702;48.370;10.794;2023-06-04T12:07:21;4.55;;;3.90;;
60867;SDS011;46702;48.370;10.794;2023-06-04T12:09:50;3.72;;;3.20;;
60867;SDS011;46702;48.370;10.794;2023-06-04T12:12:20;4.68;;;3.58;;
60867;SDS011;46702;48.370;10.794;2023-06-04T12:14:55;4.60;;;3.45;;
60867;SDS011;46702;48.370;10.794;2023-06-04T12:17:23;6.88;;;3.42;;
60867;SDS011;46702;48.370;10.794;2023-06-04T12:19:49;9.65;;;4.03;;
60867;SDS011;46702;48.370;10.794;2023-06-04T12:22:16;5.32;;;3.83;;
60867;SDS011;46702;48.370;10.794;2023-06-04T12:24:51;4.53;;;3.78;;
60867;SDS011;46702;48.370;10.794;2023-06-04T12:27:18;6.13;;;3.60;;
60867;SDS011;46702;48.370;10.794;2023-06-04T12:32:21;3.97;;;3.10;;
60867;SDS011;46702;48.370;10.794;2023-06-04T12:34:46;5.15;;;3.42;;
60867;SDS011;46702;48.370;10.794;2023-06-04T12:37:13;6.38;;;3.25;;
60867;SDS011;46702;48.370;10.794;2023-06-04T12:39:39;5.75;;;3.50;;
60867;SDS011;46702;48.370;10.794;2023-06-04T12:42:05;5.57;;;3.45;;
60867;SDS011;46702;48.370;10.794;2023-06-04T12:44:32;5.22;;;3.30;;
60867;SDS011;46702;48.370;10.794;2023-06-04T12:46:58;4.65;;;3.20;;
60867;SDS011;46702;48.370;10.794;2023-06-04T12:49:23;4.13;;;3.40;;
60867;SDS011;46702;48.370;10.794;2023-06-04T12:51:49;5.00;;;3.50;;
60867;SDS011;46702;48.370;10.794;2023-06-04T12:54:15;4.03;;;2.97;;
60867;SDS011;46702;48.370;10.794;2023-06-04T12:56:41;4.75;;;3.63;;
60867;SDS011;46702;48.370;10.794;2023-06-04T12:59:08;4.60;;;3.25;;
60867;SDS011;46702;48.370;10.794;2023-06-04T13:01:34;4.75;;;3.25;;
60867;SDS011;46702;48.370;10.794;2023-06-04T13:03:59;5.60;;;3.53;;
60867;SDS011;46702;48.370;10.794;2023-06-04T13:06:25;5.00;;;3.33;;
60867;SDS011;46702;48.370;10.794;2023-06-04T13:08:51;5.25;;;4.75;;
60867;SDS011;46702;48.370;10.794;2023-06-04T13:11:17;4.45;;;3.38;;
60867;SDS011;46702;48.370;10.794;2023-06-04T13:13:43;4.88;;;3.25;;
60867;SDS011;46702;48.370;10.794;2023-06-04T13:16:09;4.20;;;3.42;;
60867;SDS011;46702;48.370;10.794;2023-06-04T13:18:34;4.95;;;3.40;;
60867;SDS011;46702;48.370;10.794;2023-06-04T13:21:00;4.40;;;3.45;;
60867;SDS011;46702;48.370;10.794;2023-06-04T13:23:26;5.65;;;3.65;;
60867;SDS011;46702;48.370;10.794;2023-06-04T13:25:52;6.65;;;3.65;;
60867;SDS011;46702;48.370;10.794;2023-06-04T13:28:17;5.82;;;3.22;;
60867;SDS011;46702;48.370;10.794;2023-06-04T13:30:43;3.25;;;2.95;;
60867;SDS011;46702;48.370;10.794;2023-06-04T13:33:09;4.38;;;3.08;;
60867;SDS011;46702;48.370;10.794;2023-06-04T13:35:35;4.10;;;3.10;;
60867;SDS011;46702;48.370;10.794;2023-06-04T13:38:02;4.10;;;3.25;;
60867;SDS011;46702;48.370;10.794;2023-06-04T13:40:29;5.53;;;3.35;;
60867;SDS011;46702;48.370;10.794;2023-06-04T13:42:55;3.78;;;3.28;;
60867;SDS011;46702;48.370;10.794;2023-06-04T13:45:20;6.38;;;3.40;;
60867;SDS011;46702;48.370;10.794;2023-06-04T13:47:47;5.68;;;3.40;;
60867;SDS011;46702;48.370;10.794;2023-06-04T13:50:15;3.35;;;2.88;;
60867;SDS011;46702;48.370;10.794;2023-06-04T13:52:41;4.25;;;3.08;;
60867;SDS011;46702;48.370;10.794;2023-06-04T13:55:07;6.30;;;3.45;;
60867;SDS011;46702;48.370;10.794;2023-06-04T13:57:33;4.20;;;3.20;;
60867;SDS011;46702;48.370;10.794;2023-06-04T13:59:58;6.10;;;3.72;;
60867;SDS011;46702;48.370;10.794;2023-06-04T14:02:25;3.90;;;2.95;;
60867;SDS011;46702;48.370;10.794;2023-06-04T14:04:52;4.88;;;3.67;;
60867;SDS011;46702;48.370;10.794;2023-06-04T14:09:44;6.70;;;3.30;;
60867;SDS011;46702;48.370;10.794;2023-06-04T14:12:10;4.88;;;3.20;;
60867;SDS011;46702;48.370;10.794;2023-06-04T14:14:36;3.80;;;3.00;;
60867;SDS011;46702;48.370;10.794;2023-06-04T14:17:04;4.85;;;3.47;;
60867;SDS011;46702;48.370;10.794;2023-06-04T14:19:34;4.32;;;3.17;;
60867;SDS011;46702;48.370;10.794;2023-06-04T14:22:00;4.75;;;3.40;;
60867;SDS011;46702;48.370;10.794;2023-06-04T14:24:26;4.63;;;3.20;;
60867;SDS011;46702;48.370;10.794;2023-06-04T14:26:51;8.88;;;4.35;;
60867;SDS011;46702;48.370;10.794;2023-06-04T14:29:17;4.88;;;3.50;;
60867;SDS011;46702;48.370;10.794;2023-06-04T14:31:43;4.68;;;3.05;;
60867;SDS011;46702;48.370;10.794;2023-06-04T14:34:10;3.95;;;2.92;;
60867;SDS011;46702;48.370;10.794;2023-06-04T14:36:35;4.07;;;3.13;;
60867;SDS011;46702;48.370;10.794;2023-06-04T14:39:01;6.15;;;3.08;;
60867;SDS011;46702;48.370;10.794;2023-06-04T14:41:27;4.75;;;3.38;;
60867;SDS011;46702;48.370;10.794;2023-06-04T14:43:52;7.03;;;3.33;;
60867;SDS011;46702;48.370;10.794;2023-06-04T14:46:18;5.85;;;3.42;;
60867;SDS011;46702;48.370;10.794;2023-06-04T14:48:44;6.95;;;3.05;;
60867;SDS011;46702;48.370;10.794;2023-06-04T14:51:10;6.25;;;3.17;;